Time;durP1;ratioP1;P1;durP2;ratioP2;P2;SDS_P1;SDS_P2;PMS_P1;PMS_P2;Temp;Humidity;BMP_temperature;BMP_pressure;BME280_temperature;BME280_humidity;BME280_pressure;Samples;Min_cycle;Max_cycle;Signal;HPM_P1;HPM_P2
2021/06/18 00:00:29;;;;;;;24.30;12.33;;;;;;;17.51;48.79;99433.80;125612;1096;103161;-71
2021/06/18 00:03:18;;;;;;;23.30;11.70;;;;;;;17.47;49.40;99434.27;125513;1096;102899;-73
2021/06/18 00:05:46;;;;;;;24.07;11.93;;;;;;;17.46;49.41;99427.19;126119;1095;103066;-72
2021/06/18 00:08:15;;;;;;;25.97;12.40;;;;;;;17.44;49.38;99437.24;125629;1097;103048;-73
2021/06/18 00:10:45;;;;;;;22.30;11.60;;;;;;;17.42;49.16;99431.99;125701;1096;102994;-70
2021/06/18 00:13:13;;;;;;;23.97;11.30;;;;;;;17.39;49.37;99429.59;125644;1096;102945;-72
2021/06/18 00:15:41;;;;;;;22.90;11.77;;;;;;;17.35;49.39;99423.68;125602;1095;102948;-70
2021/06/18 00:18:10;;;;;;;23.20;11.03;;;;;;;17.32;49.51;99423.14;125603;1094;103174;-72
2021/06/18 00:20:38;;;;;;;23.97;10.97;;;;;;;17.29;49.52;99424.27;125695;1095;102941;-71
2021/06/18 00:23:06;;;;;;;24.70;11.47;;;;;;;17.27;50.01;99426.24;125466;1095;102972;-73
2021/06/18 00:25:35;;;;;;;22.93;10.93;;;;;;;17.23;49.84;99419.46;125687;1095;102916;-71
2021/06/18 00:28:03;;;;;;;21.37;10.70;;;;;;;17.19;49.82;99421.61;125552;1094;102936;-72
2021/06/18 00:30:33;;;;;;;21.97;10.83;;;;;;;17.17;49.90;99420.05;125632;1095;103065;-71
2021/06/18 00:33:02;;;;;;;23.60;10.17;;;;;;;17.13;49.99;99415.95;125680;1095;103002;-72
2021/06/18 00:35:36;;;;;;;22.10;8.95;;;;;;;16.98;50.04;99418.25;125637;1097;103030;-72
2021/06/18 00:38:07;;;;;;;21.37;9.57;;;;;;;16.77;49.82;99408.51;125503;1096;103012;-72
2021/06/18 00:40:36;;;;;;;21.23;9.43;;;;;;;16.68;50.32;99410.23;125641;1096;102980;-73
2021/06/18 00:43:04;;;;;;;24.10;10.00;;;;;;;16.71;50.44;99406.39;125714;1095;102941;-74
2021/06/18 00:45:35;;;;;;;23.87;10.13;;;;;;;16.73;50.64;99407.93;125698;1095;103019;-74
2021/06/18 00:48:07;;;;;;;21.83;9.67;;;;;;;16.75;50.55;99413.17;125451;1096;102988;-72
2021/06/18 00:50:38;;;;;;;26.80;11.13;;;;;;;16.75;50.88;99407.80;125645;1095;103009;-71
2021/06/18 00:53:09;;;;;;;21.67;10.50;;;;;;;16.73;50.80;99401.73;125657;1096;102969;-72
2021/06/18 00:55:38;;;;;;;21.83;9.73;;;;;;;16.71;50.68;99401.85;125546;1096;103070;-72
2021/06/18 00:58:09;;;;;;;24.23;10.27;;;;;;;16.69;50.86;99403.00;125621;1096;103151;-73
2021/06/18 01:00:38;;;;;;;23.13;11.03;;;;;;;16.67;51.00;99403.98;125509;1096;103009;-72
2021/06/18 01:03:06;;;;;;;23.77;10.77;;;;;;;16.65;50.94;99410.51;125713;1095;103068;-71
2021/06/18 01:05:37;;;;;;;25.67;10.80;;;;;;;16.62;51.17;99408.11;125442;1095;102942;-72
2021/06/18 01:08:23;;;;;;;22.00;10.47;;;;;;;16.59;51.19;99403.84;125542;1095;103001;-72
2021/06/18 01:11:17;;;;;;;23.77;10.57;;;;;;;16.54;51.33;99399.91;125424;1096;103021;-71
2021/06/18 01:14:11;;;;;;;21.10;10.93;;;;;;;16.50;51.23;99407.41;125560;1095;102911;-71
2021/06/18 01:16:51;;;;;;;22.10;10.33;;;;;;;16.48;51.49;99398.65;125441;1095;102921;-72
2021/06/18 01:19:25;;;;;;;21.80;9.73;;;;;;;16.45;51.40;99399.77;125345;1096;103008;-71
2021/06/18 01:22:00;;;;;;;21.07;9.77;;;;;;;16.44;51.82;99403.44;125497;1095;102991;-71
2021/06/18 01:24:42;;;;;;;22.07;9.17;;;;;;;16.43;51.76;99400.91;125301;1096;103009;-71
2021/06/18 01:27:31;;;;;;;20.93;10.30;;;;;;;16.41;51.83;99403.71;125496;1096;103007;-71
2021/06/18 01:30:10;;;;;;;21.70;9.03;;;;;;;16.36;51.87;99397.91;125713;1096;102938;-72
2021/06/18 01:32:44;;;;;;;20.40;9.27;;;;;;;16.32;51.95;99397.36;125584;1095;103399;-71
2021/06/18 01:35:17;;;;;;;;;;;;;;;16.28;52.70;99392.42;125666;1095;103037;-70
2021/06/18 01:37:52;;;;;;;18.03;7.53;;;;;;;16.20;51.92;99388.61;125523;1094;103074;-71
2021/06/18 01:40:23;;;;;;;19.03;8.90;;;;;;;16.08;51.96;99397.77;125398;1095;103119;-72
2021/06/18 01:42:51;;;;;;;18.57;8.63;;;;;;;15.99;52.28;99398.59;125476;1096;102984;-72
2021/06/18 01:45:26;;;;;;;19.77;8.30;;;;;;;15.93;52.38;99403.52;125505;1096;103062;-73
2021/06/18 01:48:02;;;;;;;20.00;8.53;;;;;;;15.97;52.44;99406.79;125675;1096;103094;-72
2021/06/18 01:50:35;;;;;;;19.90;8.67;;;;;;;15.98;52.54;99400.44;125548;1096;103062;-72
2021/06/18 01:53:20;;;;;;;22.47;9.50;;;;;;;15.99;52.64;99404.81;125673;1097;103068;-72
2021/06/18 01:55:53;;;;;;;22.00;9.60;;;;;;;15.98;52.65;99405.80;125527;1097;103037;-72
2021/06/18 01:58:25;;;;;;;22.17;9.13;;;;;;;15.98;52.81;99397.76;125701;1097;103025;-72
2021/06/18 02:00:53;;;;;;;19.70;8.40;;;;;;;15.99;52.74;99409.32;125466;1095;103080;-75
2021/06/18 02:03:30;;;;;;;17.73;8.03;;;;;;;15.97;53.05;99404.11;125718;1097;103010;-73
2021/06/18 02:06:04;;;;;;;21.63;9.67;;;;;;;15.97;52.95;99401.42;125623;1097;102937;-73
2021/06/18 02:08:35;;;;;;;20.87;8.83;;;;;;;15.97;53.04;99396.06;125683;1097;103013;-74
2021/06/18 02:11:07;;;;;;;20.93;9.30;;;;;;;15.98;53.17;99395.07;125623;1096;103096;-75
2021/06/18 02:13:39;;;;;;;19.63;8.20;;;;;;;15.98;53.30;99396.89;125566;1096;102948;-73
2021/06/18 02:16:16;;;;;;;21.37;9.07;;;;;;;15.95;53.14;99395.34;125683;1097;102996;-74
2021/06/18 02:18:47;;;;;;;20.50;9.17;;;;;;;15.93;53.33;99387.42;125571;1095;103169;-72
2021/06/18 02:21:18;;;;;;;19.30;8.97;;;;;;;15.88;53.33;99384.33;125596;1097;103067;-75
2021/06/18 02:23:48;;;;;;;21.47;8.53;;;;;;;15.86;53.57;99391.67;125543;1096;102948;-71
2021/06/18 02:26:20;;;;;;;19.77;8.73;;;;;;;15.86;53.65;99393.45;125584;1095;103068;-74
2021/06/18 02:28:53;;;;;;;18.07;7.83;;;;;;;15.85;53.48;99391.76;125623;1096;103035;-73
2021/06/18 02:31:25;;;;;;;19.20;9.00;;;;;;;15.83;53.54;99399.95;125504;1096;103006;-72
2021/06/18 02:33:56;;;;;;;20.63;9.33;;;;;;;15.81;53.62;99401.06;125716;1097;102942;-75
2021/06/18 02:36:24;;;;;;;22.57;8.93;;;;;;;15.77;53.64;99395.14;125503;1096;103002;-74
2021/06/18 02:38:53;;;;;;;19.83;9.10;;;;;;;15.75;53.79;99403.30;125680;1096;103002;-74
2021/06/18 02:41:21;;;;;;;20.60;10.23;;;;;;;15.74;53.74;99390.05;125673;1096;103007;-73
2021/06/18 02:43:50;;;;;;;19.97;8.90;;;;;;;15.71;53.82;99395.68;125682;1095;103034;-73
2021/06/18 02:46:57;;;;;;;20.97;9.00;;;;;;;15.66;53.96;99401.47;125758;1097;103026;-74
2021/06/18 02:49:47;;;;;;;20.97;8.67;;;;;;;15.63;54.12;99393.69;125715;1096;102923;-73
2021/06/18 02:52:34;;;;;;;20.73;9.07;;;;;;;15.57;54.08;99395.06;125729;1097;102974;-76
2021/06/18 02:55:20;;;;;;;20.10;9.33;;;;;;;15.55;54.20;99398.88;125723;1097;103091;-72
2021/06/18 02:57:56;;;;;;;19.00;8.50;;;;;;;15.52;54.33;99397.30;125714;1096;103032;-72
2021/06/18 03:00:29;;;;;;;19.30;7.83;;;;;;;15.51;54.39;99394.77;125682;1094;103034;-74
2021/06/18 03:03:03;;;;;;;18.88;8.13;;;;;;;15.48;54.27;99393.22;125654;1095;103141;-74
2021/06/18 03:05:35;;;;;;;18.00;8.50;;;;;;;15.46;54.38;99401.38;125752;1096;102913;-73
2021/06/18 03:08:10;;;;;;;23.37;9.03;;;;;;;15.45;54.56;99399.68;125680;1094;103066;-74
2021/06/18 03:10:43;;;;;;;19.53;7.87;;;;;;;15.46;54.55;99405.91;125633;1095;103110;-73
2021/06/18 03:13:18;;;;;;;19.93;8.60;;;;;;;15.46;54.86;99401.38;125522;1096;102945;-73
2021/06/18 03:15:49;;;;;;;18.20;8.00;;;;;;;15.46;54.93;99403.23;125637;1096;103179;-73
2021/06/18 03:18:23;;;;;;;19.40;8.63;;;;;;;15.50;54.83;99403.80;125620;1094;102891;-72
2021/06/18 03:20:59;;;;;;;18.97;8.43;;;;;;;15.51;54.90;99400.96;127116;1095;103013;-72
2021/06/18 03:23:32;;;;;;;16.67;8.30;;;;;;;15.52;55.04;99408.02;125587;1095;102985;-72
2021/06/18 03:26:06;;;;;;;18.18;7.85;;;;;;;15.55;55.08;99405.07;125666;1096;103577;-72
2021/06/18 03:28:38;;;;;;;20.37;8.40;;;;;;;15.55;54.98;99404.23;125692;1096;103069;-74
2021/06/18 03:31:09;;;;;;;18.43;8.03;;;;;;;15.54;55.13;99406.05;125767;1096;103402;-71
2021/06/18 03:33:43;;;;;;;18.87;8.23;;;;;;;15.56;55.14;99409.45;125680;1096;102939;-68
2021/06/18 03:36:13;;;;;;;18.40;8.20;;;;;;;15.57;55.22;99403.11;125668;1095;102911;-72
2021/06/18 03:38:45;;;;;;;17.50;8.07;;;;;;;15.61;55.46;99406.38;125676;1096;103023;-73
2021/06/18 03:41:18;;;;;;;20.87;9.03;;;;;;;15.66;55.59;99403.28;125653;1096;102922;-72
2021/06/18 03:43:48;;;;;;;18.00;8.27;;;;;;;15.69;55.59;99406.52;125533;1096;102916;-71
2021/06/18 03:46:21;;;;;;;19.17;8.30;;;;;;;15.73;55.54;99409.80;125495;1096;103106;-70
2021/06/18 03:48:54;;;;;;;18.97;9.17;;;;;;;15.78;55.73;99405.71;125551;1096;102998;-73
2021/06/18 03:51:23;;;;;;;19.18;7.95;;;;;;;15.84;55.82;99401.66;125629;1095;103185;-71
2021/06/18 03:53:56;;;;;;;20.37;8.30;;;;;;;15.88;55.93;99405.80;125920;1095;103557;-71
2021/06/18 03:56:28;;;;;;;17.98;8.40;;;;;;;15.93;55.96;99398.16;125645;1096;103074;-72
2021/06/18 03:59:01;;;;;;;20.73;8.93;;;;;;;15.99;56.05;99401.27;125556;1096;103058;-72
2021/06/18 04:01:31;;;;;;;18.53;8.40;;;;;;;16.03;56.10;99392.83;125551;1096;103439;-71
2021/06/18 04:04:04;;;;;;;18.00;7.97;;;;;;;16.08;56.18;99389.72;125703;1095;103064;-80
2021/06/18 04:06:34;;;;;;;15.53;7.05;;;;;;;16.15;56.02;99401.59;125650;1096;102981;-72
2021/06/18 04:09:06;;;;;;;17.50;7.50;;;;;;;16.17;56.19;99398.75;126064;1095;103010;-73
2021/06/18 04:11:35;;;;;;;16.25;8.15;;;;;;;16.18;56.14;99395.95;125649;1096;102997;-74
2021/06/18 04:14:07;;;;;;;18.97;8.83;;;;;;;16.22;56.27;99392.00;125625;1094;103164;-77
2021/06/18 04:16:39;;;;;;;19.07;7.70;;;;;;;16.26;56.42;99399.77;125680;1094;102909;-76
2021/06/18 04:19:11;;;;;;;18.93;8.25;;;;;;;16.28;56.46;99387.06;125668;1095;102939;-75
2021/06/18 04:21:44;;;;;;;16.23;7.40;;;;;;;16.33;56.45;99391.01;125670;1094;103123;-77
2021/06/18 04:24:16;;;;;;;18.07;7.83;;;;;;;16.37;56.43;99391.56;125665;1096;103027;-77
2021/06/18 04:26:48;;;;;;;17.03;7.97;;;;;;;16.40;56.73;99393.13;125496;1094;103164;-76
2021/06/18 04:29:16;;;;;;;18.83;7.83;;;;;;;16.43;56.75;99391.00;125681;1095;102937;-74
2021/06/18 04:31:44;;;;;;;18.60;8.80;;;;;;;16.46;56.65;99389.88;125930;1095;103009;-75
2021/06/18 04:34:13;;;;;;;20.83;8.47;;;;;;;16.50;56.67;99392.13;125835;1095;103065;-77
2021/06/18 04:36:43;;;;;;;20.80;8.77;;;;;;;16.55;57.00;99386.33;125454;1096;102908;-76
2021/06/18 04:39:12;;;;;;;20.90;8.80;;;;;;;16.61;57.22;99387.61;125628;1095;103377;-73
2021/06/18 04:41:42;;;;;;;19.70;9.17;;;;;;;16.68;57.03;99391.42;126262;1096;103090;-72
2021/06/18 04:44:14;;;;;;;17.43;8.20;;;;;;;16.75;56.97;99386.31;125646;1096;102922;-73
2021/06/18 04:46:42;;;;;;;20.07;8.30;;;;;;;16.83;57.05;99386.45;125632;1095;102916;-72
2021/06/18 04:49:11;;;;;;;19.30;9.10;;;;;;;16.91;57.30;99378.48;125652;1094;102971;-74
2021/06/18 04:51:42;;;;;;;21.70;9.50;;;;;;;17.01;57.50;99383.03;125439;1096;103006;-72
2021/06/18 04:54:14;;;;;;;19.50;8.67;;;;;;;17.09;57.27;99389.39;125692;1096;103013;-72
2021/06/18 04:56:42;;;;;;;20.33;9.40;;;;;;;17.16;57.26;99386.09;125689;1096;103035;-73
2021/06/18 04:59:11;;;;;;;23.93;10.83;;;;;;;17.24;57.39;99386.22;125675;1097;103191;-73
2021/06/18 05:01:39;;;;;;;22.53;10.23;;;;;;;17.30;57.21;99374.88;125687;1096;103127;-72
2021/06/18 05:04:07;;;;;;;24.87;10.30;;;;;;;17.36;57.36;99374.29;125691;1096;102922;-73
2021/06/18 05:06:36;;;;;;;24.47;10.77;;;;;;;17.44;57.72;99372.70;125741;1095;103000;-70
2021/06/18 05:09:06;;;;;;;22.70;10.40;;;;;;;17.50;57.48;99375.64;125668;1096;103038;-73
2021/06/18 05:11:34;;;;;;;23.20;10.03;;;;;;;17.57;57.84;99373.19;125701;1095;103064;-69
2021/06/18 05:14:03;;;;;;;19.77;8.57;;;;;;;17.64;57.61;99376.15;125852;1095;103579;-75
2021/06/18 05:16:31;;;;;;;19.00;8.27;;;;;;;17.68;57.60;99378.38;125656;1095;103221;-74
2021/06/18 05:18:59;;;;;;;22.87;9.10;;;;;;;17.75;58.03;99380.47;127606;1095;101042;-72
2021/06/18 05:21:28;;;;;;;19.83;8.73;;;;;;;17.85;57.58;99378.58;126002;1096;103041;-74
2021/06/18 05:23:56;;;;;;;22.13;9.67;;;;;;;17.93;57.91;99384.02;125508;1096;103063;-75
2021/06/18 05:26:25;;;;;;;23.27;9.50;;;;;;;18.06;57.83;99386.40;125725;1094;103008;-74
2021/06/18 05:28:53;;;;;;;26.03;10.57;;;;;;;18.18;58.20;99381.63;125655;1095;102941;-74
2021/06/18 05:31:22;;;;;;;26.33;10.40;;;;;;;18.29;58.05;99380.55;125676;1095;102916;-71
2021/06/18 05:33:51;;;;;;;22.55;9.00;;;;;;;18.43;58.23;99382.71;125644;1097;102946;-74
2021/06/18 05:36:19;;;;;;;22.73;9.60;;;;;;;18.60;58.24;99380.13;127517;1097;100959;-74
2021/06/18 05:38:53;;;;;;;22.97;9.63;;;;;;;18.80;57.86;99371.88;125645;1095;103367;-73
2021/06/18 05:41:22;;;;;;;21.83;9.00;;;;;;;18.99;58.20;99377.08;126299;1095;102914;-75
2021/06/18 05:43:50;;;;;;;21.43;8.87;;;;;;;19.17;58.02;99381.58;125723;1096;102916;-75
2021/06/18 05:46:18;;;;;;;21.73;8.47;;;;;;;19.33;58.00;99378.98;125701;1095;102916;-74
2021/06/18 05:48:49;;;;;;;19.63;8.73;;;;;;;19.49;58.00;99380.05;125732;1094;102997;-73
2021/06/18 05:51:18;;;;;;;20.40;8.43;;;;;;;19.66;58.09;99385.52;125699;1097;102919;-75
2021/06/18 05:53:49;;;;;;;17.63;7.10;;;;;;;19.84;57.90;99383.55;125694;1096;103066;-74
2021/06/18 05:56:18;;;;;;;20.07;8.27;;;;;;;19.97;58.04;99385.80;125688;1097;102908;-74
2021/06/18 05:58:46;;;;;;;18.37;7.47;;;;;;;20.07;57.90;99381.11;125699;1097;102943;-74
2021/06/18 06:01:16;;;;;;;18.87;8.27;;;;;;;20.22;58.18;99389.39;125689;1095;102922;-75
2021/06/18 06:04:01;;;;;;;17.93;8.23;;;;;;;20.42;58.08;99385.53;125573;1096;103004;-74
2021/06/18 06:06:33;;;;;;;17.33;7.17;;;;;;;20.56;58.22;99390.28;125695;1094;103004;-73
2021/06/18 06:09:01;;;;;;;15.97;7.47;;;;;;;20.75;58.11;99390.97;125708;1097;102914;-74
2021/06/18 06:11:34;;;;;;;18.20;7.67;;;;;;;20.94;58.14;99398.73;125486;1096;102953;-74
2021/06/18 06:14:05;;;;;;;22.48;7.88;;;;;;;21.10;58.28;99392.45;125694;1097;102987;-73
2021/06/18 06:16:37;;;;;;;17.90;7.77;;;;;;;21.27;58.09;99400.54;125710;1097;103029;-73
2021/06/18 06:19:05;;;;;;;18.77;7.50;;;;;;;21.39;57.76;99393.75;125692;1097;103044;-73
2021/06/18 06:21:34;;;;;;;26.13;8.20;;;;;;;21.58;58.26;99396.22;125596;1096;103051;-73
2021/06/18 06:24:02;;;;;;;17.40;7.30;;;;;;;21.71;57.92;99391.09;125671;1095;102922;-73
2021/06/18 06:26:31;;;;;;;25.43;7.57;;;;;;;21.87;58.00;99398.30;125572;1096;102887;-74
2021/06/18 06:28:59;;;;;;;19.63;7.83;;;;;;;22.03;58.30;99394.65;125687;1097;103140;-74
2021/06/18 06:31:27;;;;;;;18.53;8.27;;;;;;;22.18;57.50;99389.34;125642;1095;102918;-73
2021/06/18 06:33:56;;;;;;;17.07;7.83;;;;;;;22.30;57.65;99395.17;125705;1095;103068;-74
2021/06/18 06:36:24;;;;;;;19.53;7.30;;;;;;;22.44;58.06;99386.27;125484;1096;103130;-75
2021/06/18 06:38:53;;;;;;;17.35;7.15;;;;;;;22.62;58.10;99392.44;125775;1096;102942;-75
2021/06/18 06:41:21;;;;;;;21.95;8.60;;;;;;;22.80;57.51;99390.22;125614;1096;103086;-74
2021/06/18 06:43:49;;;;;;;19.40;7.80;;;;;;;22.98;57.43;99391.77;125535;1096;103069;-74
2021/06/18 06:46:22;;;;;;;18.80;6.80;;;;;;;23.14;57.67;99388.04;125713;1097;103124;-74
2021/06/18 06:48:53;;;;;;;26.28;10.48;;;;;;;23.31;57.71;99386.02;125660;1097;102932;-75
2021/06/18 06:51:24;;;;;;;19.83;8.20;;;;;;;23.52;57.72;99387.98;125676;1095;102916;-74
2021/06/18 06:53:56;;;;;;;21.27;7.43;;;;;;;23.76;57.27;99392.27;125522;1096;103034;-74
2021/06/18 06:56:25;;;;;;;16.97;7.17;;;;;;;23.98;57.52;99389.61;125516;1096;102927;-75
2021/06/18 06:58:56;;;;;;;19.87;7.53;;;;;;;24.23;57.39;99384.66;125714;1097;103042;-75
2021/06/18 07:01:25;;;;;;;22.07;7.70;;;;;;;24.50;57.18;99386.80;125685;1097;102926;-74
2021/06/18 07:03:56;;;;;;;20.40;7.90;;;;;;;24.86;57.35;99388.60;125700;1095;102919;-75
2021/06/18 07:06:24;;;;;;;23.60;7.30;;;;;;;25.29;57.24;99384.91;125677;1097;103543;-75
2021/06/18 07:08:53;;;;;;;18.47;7.87;;;;;;;25.67;56.98;99383.67;125535;1096;102991;-74
2021/06/18 07:11:24;;;;;;;19.83;8.20;;;;;;;26.11;57.26;99381.50;125695;1097;102917;-77
2021/06/18 07:13:53;;;;;;;18.73;7.27;;;;;;;26.54;57.01;99383.91;125642;1097;103105;-74
2021/06/18 07:16:28;;;;;;;21.77;6.53;;;;;;;26.98;56.63;99376.19;125708;1095;103427;-74
2021/06/18 07:18:56;;;;;;;18.88;6.63;;;;;;;27.36;56.42;99374.63;125570;1096;102972;-74
2021/06/18 07:21:29;;;;;;;21.43;7.13;;;;;;;27.79;55.97;99379.55;125637;1095;102991;-74
2021/06/18 07:23:57;;;;;;;19.00;6.90;;;;;;;28.26;56.37;99373.02;125721;1096;103037;-73
2021/06/18 07:26:30;;;;;;;15.30;6.70;;;;;;;28.80;55.98;99378.95;125588;1096;102972;-74
2021/06/18 07:28:58;;;;;;;18.07;6.97;;;;;;;29.46;55.78;99367.57;125691;1097;103060;-73
2021/06/18 07:31:26;;;;;;;35.20;21.80;;;;;;;30.18;55.42;99373.41;125733;1095;102939;-73
2021/06/18 07:33:55;;;;;;;16.73;8.17;;;;;;;31.24;55.28;99366.42;125675;1097;103001;-73
2021/06/18 07:36:26;;;;;;;17.53;6.23;;;;;;;32.38;54.29;99368.73;125603;1096;103425;-73
2021/06/18 07:38:58;;;;;;;14.00;5.90;;;;;;;33.31;54.29;99367.41;125462;1096;103096;-73
2021/06/18 07:41:26;;;;;;;12.60;6.20;;;;;;;34.17;53.43;99377.05;125668;1096;101784;-73
2021/06/18 07:43:55;;;;;;;15.07;6.23;;;;;;;34.84;53.42;99361.06;125654;1096;103002;-73
2021/06/18 07:46:26;;;;;;;15.47;5.83;;;;;;;35.55;53.22;99363.70;125624;1095;103087;-73
2021/06/18 07:48:55;;;;;;;13.00;5.60;;;;;;;36.05;52.48;99355.88;125648;1095;102937;-73
2021/06/18 07:51:29;;;;;;;11.45;5.25;;;;;;;36.49;52.63;99362.86;125899;1095;103055;-74
2021/06/18 07:53:57;;;;;;;12.80;5.80;;;;;;;37.02;52.03;99361.73;125688;1096;102941;-73
2021/06/18 07:56:29;;;;;;;12.57;5.23;;;;;;;37.44;51.81;99362.41;125641;1094;102913;-76
2021/06/18 07:59:02;;;;;;;14.90;6.10;;;;;;;37.76;50.91;99367.58;125479;1096;103026;-73
2021/06/18 08:01:31;;;;;;;9.87;4.43;;;;;;;38.25;50.20;99363.13;125718;1096;102949;-72
2021/06/18 08:04:08;;;;;;;9.00;3.77;;;;;;;38.40;49.40;99364.98;125695;1095;102914;-73
2021/06/18 08:06:36;;;;;;;8.78;3.75;;;;;;;38.28;48.55;99370.06;125651;1096;102936;-73
2021/06/18 08:09:05;;;;;;;8.50;3.80;;;;;;;38.59;48.42;99364.28;125704;1097;102914;-73
2021/06/18 08:11:33;;;;;;;9.70;4.13;;;;;;;38.62;47.76;99368.41;125499;1096;103077;-74
2021/06/18 08:14:05;;;;;;;6.80;3.73;;;;;;;38.45;46.52;99366.91;125729;1096;103527;-73
2021/06/18 08:16:34;;;;;;;7.10;3.50;;;;;;;38.41;46.50;99374.97;125587;1096;102927;-74
2021/06/18 08:19:04;;;;;;;8.73;3.17;;;;;;;38.45;45.63;99366.91;125693;1095;102914;-74
2021/06/18 08:21:32;;;;;;;7.73;3.20;;;;;;;38.50;44.48;99364.09;125678;1095;103006;-74
2021/06/18 08:24:08;;;;;;;6.85;3.20;;;;;;;38.00;43.66;99360.53;125682;1097;103117;-74
2021/06/18 08:26:36;;;;;;;6.25;3.55;;;;;;;37.66;43.07;99360.14;125696;1094;103415;-74
2021/06/18 08:29:05;;;;;;;4.37;2.67;;;;;;;37.52;42.86;99359.09;125694;1096;102916;-73
2021/06/18 08:31:33;;;;;;;7.33;3.30;;;;;;;37.34;42.03;99357.75;125704;1096;102937;-73
2021/06/18 08:34:08;;;;;;;7.43;3.13;;;;;;;37.22;42.24;99355.30;125714;1095;103010;-72
2021/06/18 08:36:47;;;;;;;5.60;3.13;;;;;;;37.10;38.31;99361.13;125719;1096;103013;-72
2021/06/18 08:39:15;;;;;;;8.37;3.40;;;;;;;36.39;38.83;99348.97;125689;1094;103071;-73
2021/06/18 08:41:48;;;;;;;7.17;3.60;;;;;;;36.19;38.71;99350.63;125654;1095;103016;-73
2021/06/18 08:44:20;;;;;;;11.37;3.93;;;;;;;35.52;38.48;99356.80;125709;1096;103026;-72
2021/06/18 08:46:49;;;;;;;10.50;4.97;;;;;;;35.22;38.75;99354.68;125663;1096;102944;-72
2021/06/18 08:49:17;;;;;;;8.50;4.63;;;;;;;35.15;38.58;99360.45;125724;1094;102914;-74
2021/06/18 08:51:46;;;;;;;10.53;5.00;;;;;;;35.50;38.99;99352.61;125750;1095;103019;-73
2021/06/18 08:54:19;;;;;;;10.03;5.20;;;;;;;35.90;38.90;99346.39;125539;1096;103139;-72
2021/06/18 08:56:47;;;;;;;13.17;5.03;;;;;;;35.51;38.36;99346.83;125684;1095;102946;-72
2021/06/18 08:59:16;;;;;;;8.60;4.70;;;;;;;35.00;38.81;99348.20;125738;1096;103023;-74
2021/06/18 09:01:44;;;;;;;8.83;4.70;;;;;;;34.62;38.69;99349.30;125607;1096;102935;-74
2021/06/18 09:04:13;;;;;;;12.30;5.30;;;;;;;34.25;37.96;99350.89;125663;1097;103026;-73
2021/06/18 09:06:42;;;;;;;15.73;5.13;;;;;;;34.13;38.33;99346.36;125684;1097;102945;-75
2021/06/18 09:09:34;;;;;;;11.87;4.50;;;;;;;33.78;38.36;99346.80;125681;1095;102943;-73
2021/06/18 09:12:10;;;;;;;9.40;4.40;;;;;;;33.62;37.89;99335.59;125562;1096;103078;-72
2021/06/18 09:14:43;;;;;;;11.20;4.27;;;;;;;33.67;37.64;99335.65;125696;1097;103067;-73
2021/06/18 09:17:28;;;;;;;13.30;4.80;;;;;;;33.76;38.13;99332.44;125655;1095;103017;-73
2021/06/18 09:20:04;;;;;;;15.20;4.90;;;;;;;33.69;38.10;99338.13;125690;1096;103010;-72
2021/06/18 09:22:45;;;;;;;9.80;4.77;;;;;;;33.59;37.50;99329.77;125660;1096;102971;-72
2021/06/18 09:25:21;;;;;;;12.90;4.70;;;;;;;33.61;37.94;99325.64;125692;1095;102951;-71
2021/06/18 09:27:51;;;;;;;13.17;4.63;;;;;;;33.64;37.77;99321.52;125774;1095;102943;-72
2021/06/18 09:30:27;;;;;;;13.13;4.57;;;;;;;33.31;37.52;99321.41;125691;1094;102932;-71
2021/06/18 09:33:11;;;;;;;8.73;4.20;;;;;;;33.35;37.72;99327.22;125706;1094;102819;-72
2021/06/18 09:36:05;;;;;;;11.87;3.90;;;;;;;33.46;37.73;99319.94;125682;1095;103087;-72
2021/06/18 09:39:01;;;;;;;10.50;4.23;;;;;;;33.63;37.48;99325.38;125908;1095;102916;-72
2021/06/18 09:41:44;;;;;;;7.70;3.27;;;;;;;33.48;37.24;99326.03;125651;1095;103051;-71
2021/06/18 09:44:18;;;;;;;10.00;3.77;;;;;;;33.38;36.91;99326.74;125659;1095;103040;-73
2021/06/18 09:46:52;;;;;;;5.47;3.57;;;;;;;33.25;36.75;99322.42;125638;1095;102943;-70
2021/06/18 09:49:45;;;;;;;8.03;3.50;;;;;;;33.01;36.46;99324.57;125740;1097;103030;-70
2021/06/18 09:52:17;;;;;;;6.93;3.67;;;;;;;32.86;36.43;99314.17;125714;1095;102941;-72
2021/06/18 09:54:52;;;;;;;6.60;3.80;;;;;;;32.87;36.58;99319.41;125551;1096;103274;-72
2021/06/18 09:57:36;;;;;;;8.87;4.10;;;;;;;32.95;36.76;99321.74;126007;1096;103000;-71
2021/06/18 10:00:17;;;;;;;9.53;4.13;;;;;;;33.04;36.37;99327.64;125679;1095;103020;-70
2021/06/18 10:02:52;;;;;;;9.93;4.07;;;;;;;33.02;36.55;99317.98;125730;1096;103041;-70
2021/06/18 10:05:34;;;;;;;10.93;4.13;;;;;;;33.01;36.27;99324.57;126640;1096;103077;-71
2021/06/18 10:08:06;;;;;;;9.53;3.77;;;;;;;32.84;36.28;99321.86;125981;1097;103000;-73
2021/06/18 10:10:40;;;;;;;10.03;3.78;;;;;;;32.78;36.42;99320.92;125707;1096;103367;-72
2021/06/18 10:13:13;;;;;;;8.27;3.83;;;;;;;32.55;35.82;99316.44;125727;1095;102995;-72
2021/06/18 10:15:42;;;;;;;7.37;3.80;;;;;;;32.31;35.84;99313.83;125706;1097;103007;-71
2021/06/18 10:18:15;;;;;;;8.77;3.70;;;;;;;32.25;35.85;99312.89;125698;1095;102918;-69
2021/06/18 10:20:43;;;;;;;9.57;3.50;;;;;;;32.16;35.84;99314.38;125685;1095;103065;-69
2021/06/18 10:23:27;;;;;;;4.83;3.17;;;;;;;32.05;35.92;99311.44;125765;1096;102938;-71
2021/06/18 10:26:04;;;;;;;5.97;3.37;;;;;;;31.97;35.79;99311.86;125665;1097;103032;-70
2021/06/18 10:28:38;;;;;;;8.63;3.40;;;;;;;31.88;35.79;99316.09;125568;1096;103033;-72
2021/06/18 10:31:24;;;;;;;6.97;3.83;;;;;;;31.80;35.93;99303.55;125721;1095;103030;-71
2021/06/18 10:34:19;;;;;;;7.87;3.73;;;;;;;31.77;35.92;99309.57;125642;1097;103095;-76
2021/06/18 10:36:54;;;;;;;13.27;4.00;;;;;;;31.67;35.80;99310.15;125659;1094;102916;-75
2021/06/18 10:39:22;;;;;;;8.10;3.60;;;;;;;31.60;35.71;99303.95;125572;1096;103106;-76
2021/06/18 10:41:59;;;;;;;9.27;3.70;;;;;;;31.55;35.47;99295.64;125724;1095;102945;-75
2021/06/18 10:44:37;;;;;;;9.07;4.00;;;;;;;31.46;35.33;99298.77;125632;1096;102959;-77
2021/06/18 10:47:30;;;;;;;7.00;3.10;;;;;;;31.37;35.67;99289.23;125579;1096;103064;-75
2021/06/18 10:50:04;;;;;;;6.87;3.67;;;;;;;31.32;35.71;99289.97;125676;1095;102936;-74
2021/06/18 10:52:44;;;;;;;8.47;3.90;;;;;;;31.24;35.44;99284.00;125652;1095;102945;-75
2021/06/18 10:55:14;;;;;;;11.80;3.93;;;;;;;31.17;36.01;99287.75;125663;1096;103122;-72
2021/06/18 10:57:53;;;;;;;;;;;;;;;31.16;35.88;99297.06;125651;1097;103038;-71
2021/06/18 11:00:28;;;;;;;11.10;4.10;;;;;;;30.99;35.59;99291.42;125584;1095;103026;-70
2021/06/18 11:02:58;;;;;;;10.97;3.63;;;;;;;30.92;36.07;99290.73;125654;1095;102948;-71
2021/06/18 11:05:37;;;;;;;8.33;4.07;;;;;;;30.90;35.97;99287.39;125509;1095;103034;-71
2021/06/18 11:08:28;;;;;;;10.43;3.50;;;;;;;30.86;36.13;99280.71;125651;1095;103037;-70
2021/06/18 11:11:30;;;;;;;14.90;4.20;;;;;;;30.83;36.05;99283.94;125694;1096;103036;-71
2021/06/18 11:14:10;;;;;;;13.40;3.80;;;;;;;30.87;36.13;99291.44;125630;1095;103055;-71
2021/06/18 11:16:42;;;;;;;7.90;3.70;;;;;;;30.89;35.73;99280.23;125682;1094;102920;-72
2021/06/18 11:19:20;;;;;;;8.33;3.68;;;;;;;30.94;36.13;99279.50;125705;1096;103015;-73
2021/06/18 11:21:49;;;;;;;8.00;3.80;;;;;;;30.95;36.30;99282.02;125703;1096;102917;-71
2021/06/18 11:24:33;;;;;;;11.47;3.77;;;;;;;30.94;36.14;99285.84;125612;1096;102973;-71
2021/06/18 11:27:30;;;;;;;12.97;3.73;;;;;;;30.83;35.69;99273.77;125821;1094;103090;-71
2021/06/18 11:30:25;;;;;;;11.07;4.10;;;;;;;30.77;35.87;99268.41;126000;1096;103089;-69
2021/06/18 11:32:56;;;;;;;9.10;3.97;;;;;;;30.69;36.19;99275.12;125560;1095;102948;-70
2021/06/18 11:35:31;;;;;;;9.30;4.27;;;;;;;30.72;36.22;99277.38;125519;1096;102982;-70